Time;durP1;ratioP1;P1;durP2;ratioP2;P2;SDS_P1;SDS_P2;PMS_P1;PMS_P2;Temp;Humidity;BMP_temperature;BMP_pressure;BME280_temperature;BME280_humidity;BME280_pressure;Samples;Min_cycle;Max_cycle;Signal;HPM_P1;HPM_P2
2024/01/04 00:00:36;;;;;;;19.52;11.15;;;;;;;6.61;100.00;97877.66;1639711;86;25673;-58
2024/01/04 00:03:04;;;;;;;20.32;11.05;;;;;;;6.62;100.00;97885.91;1662891;86;25448;-54
2024/01/04 00:05:31;;;;;;;16.07;10.32;;;;;;;6.62;100.00;97883.22;1662844;86;25652;-56
2024/01/04 00:07:57;;;;;;;21.05;10.28;;;;;;;6.63;100.00;97885.38;1639728;86;25575;-53
2024/01/04 00:10:23;;;;;;;16.95;10.38;;;;;;;6.62;100.00;97886.48;1662909;86;27462;-53
2024/01/04 00:12:51;;;;;;;13.60;10.20;;;;;;;6.62;100.00;97881.87;1639612;86;25655;-54
2024/01/04 00:15:18;;;;;;;14.98;10.55;;;;;;;6.64;100.00;97889.06;1640064;86;25519;-57
2024/01/04 00:17:44;;;;;;;16.00;10.45;;;;;;;6.64;100.00;97889.60;1662850;86;25627;-54
2024/01/04 00:20:11;;;;;;;16.45;9.85;;;;;;;6.64;100.00;97889.06;1662895;86;25464;-55
2024/01/04 00:22:37;;;;;;;20.50;10.68;;;;;;;6.66;100.00;97896.78;1662925;86;28071;-57
2024/01/04 00:25:05;;;;;;;18.17;10.60;;;;;;;6.66;100.00;97894.87;1618453;86;25670;-55
2024/01/04 00:27:31;;;;;;;17.85;10.90;;;;;;;6.66;100.00;97890.06;1662864;86;25510;-57
2024/01/04 00:29:57;;;;;;;17.90;10.25;;;;;;;6.65;100.00;97885.23;1644162;85;25616;-56
2024/01/04 00:32:23;;;;;;;17.67;10.48;;;;;;;6.65;100.00;97891.17;1689571;85;25543;-57
2024/01/04 00:34:50;;;;;;;19.42;10.48;;;;;;;6.64;100.00;97885.58;1689530;85;27343;-56
2024/01/04 00:37:16;;;;;;;15.48;10.23;;;;;;;6.65;100.00;97889.27;1689434;85;25664;-55
2024/01/04 00:39:42;;;;;;;18.10;10.10;;;;;;;6.65;100.00;97893.30;1663465;85;25444;-57
2024/01/04 00:42:09;;;;;;;16.40;9.50;;;;;;;6.65;100.00;97894.64;1689468;85;26397;-57
2024/01/04 00:44:35;;;;;;;16.27;10.20;;;;;;;6.67;100.00;97903.70;1689550;84;25436;-58
2024/01/04 00:47:01;;;;;;;15.45;9.90;;;;;;;6.66;100.00;97896.21;1663834;85;27349;-57
2024/01/04 00:49:30;;;;;;;16.45;9.38;;;;;;;6.66;100.00;97898.13;1663566;85;25528;-57
2024/01/04 00:51:56;;;;;;;16.25;9.85;;;;;;;6.66;100.00;97902.92;1689592;85;32757;-57
2024/01/04 00:54:22;;;;;;;14.15;8.65;;;;;;;6.66;100.00;97895.44;1689492;85;25610;-55
2024/01/04 00:56:49;;;;;;;13.30;8.28;;;;;;;6.66;100.00;97901.58;1689568;85;25491;-56
2024/01/04 00:59:15;;;;;;;17.32;9.48;;;;;;;6.66;100.00;97900.81;1689532;85;27962;-56
2024/01/04 01:01:41;;;;;;;12.98;7.62;;;;;;;6.67;100.00;97901.02;1689475;85;25569;-58
2024/01/04 01:04:07;;;;;;;10.55;7.15;;;;;;;6.67;100.00;97904.47;1670409;85;25504;-54
2024/01/04 01:06:34;;;;;;;12.95;7.05;;;;;;;6.67;100.00;97892.38;1670312;85;25560;-56
2024/01/04 01:09:00;;;;;;;12.35;7.30;;;;;;;6.69;100.00;97894.73;1670392;85;25478;-54
2024/01/04 01:11:27;;;;;;;10.05;6.78;;;;;;;6.69;100.00;97894.19;1670362;85;27413;-57
2024/01/04 01:13:53;;;;;;;13.18;7.78;;;;;;;6.70;100.00;97894.39;1643100;85;25461;-56
2024/01/04 01:16:19;;;;;;;11.35;7.80;;;;;;;6.70;100.00;97890.94;1670338;85;25475;-57
2024/01/04 01:18:46;;;;;;;13.28;6.90;;;;;;;6.69;100.00;97891.50;1670377;85;25603;-57
2024/01/04 01:21:12;;;;;;;10.20;6.60;;;;;;;6.69;100.00;97889.36;1670449;85;25405;-57
2024/01/04 01:23:39;;;;;;;11.88;6.80;;;;;;;6.70;100.00;97893.62;1670411;85;28073;-57
2024/01/04 01:26:05;;;;;;;9.68;6.28;;;;;;;6.70;100.00;97893.05;1617344;87;25483;-57
2024/01/04 01:28:32;;;;;;;11.55;6.17;;;;;;;6.71;100.00;97897.88;1670372;85;25443;-57
2024/01/04 01:31:04;;;;;;;11.22;6.62;;;;;;;6.70;100.00;97893.05;1666823;84;26394;-57
2024/01/04 01:33:28;;;;;;;9.63;6.65;;;;;;;6.69;100.00;97889.36;1659883;86;25406;-56
2024/01/04 01:35:54;;;;;;;10.60;6.15;;;;;;;6.69;100.00;97896.87;1600378;87;27397;-53
2024/01/04 01:38:21;;;;;;;12.63;7.62;;;;;;;6.69;100.00;97902.80;1639713;86;25646;-56
2024/01/04 01:40:47;;;;;;;10.05;6.15;;;;;;;6.69;100.00;97900.11;1636782;87;25488;-54
2024/01/04 01:43:13;;;;;;;12.45;6.45;;;;;;;6.69;100.00;97906.82;1662849;86;25668;-56
2024/01/04 01:45:39;;;;;;;13.45;8.15;;;;;;;6.67;100.00;97905.81;1609931;87;25518;-57
2024/01/04 01:48:07;;;;;;;10.95;6.30;;;;;;;6.68;100.00;97897.99;1637612;86;28066;-56
2024/01/04 01:50:34;;;;;;;9.88;5.60;;;;;;;6.70;100.00;97904.37;1637566;86;25518;-56
2024/01/04 01:53:01;;;;;;;9.75;6.42;;;;;;;6.70;100.00;97910.52;1621574;87;25469;-57
2024/01/04 01:55:28;;;;;;;9.53;5.83;;;;;;;6.70;100.00;97911.86;1644459;87;25440;-56
2024/01/04 01:57:55;;;;;;;12.88;5.85;;;;;;;6.70;100.00;97907.83;1662856;86;25421;-57
2024/01/04 02:00:22;;;;;;;11.50;5.30;;;;;;;6.70;100.00;97902.45;1614260;87;28022;-56
2024/01/04 02:02:49;;;;;;;7.55;5.65;;;;;;;6.70;100.00;97913.20;1639536;86;25510;-56
2024/01/04 02:05:16;;;;;;;7.83;4.87;;;;;;;6.71;100.00;97907.29;1636753;87;25409;-57
2024/01/04 02:07:44;;;;;;;9.20;5.28;;;;;;;6.71;100.00;97906.72;1639673;86;25588;-54
2024/01/04 02:10:10;;;;;;;7.47;4.97;;;;;;;6.71;100.00;97909.97;1636773;87;25520;-57
2024/01/04 02:12:37;;;;;;;9.50;5.35;;;;;;;6.74;100.00;97909.27;1662824;86;27332;-55
2024/01/04 02:15:07;;;;;;;7.70;5.08;;;;;;;6.72;100.00;97908.83;1636627;87;25520;-56
2024/01/04 02:17:34;;;;;;;9.40;5.30;;;;;;;6.73;100.00;97907.72;1662949;86;25447;-56
2024/01/04 02:20:00;;;;;;;7.75;4.75;;;;;;;6.75;100.00;97906.04;1632301;87;25552;-57
2024/01/04 02:22:27;;;;;;;8.45;5.28;;;;;;;6.76;100.00;97908.39;1644488;87;25452;-56
2024/01/04 02:24:53;;;;;;;9.38;5.55;;;;;;;6.76;100.00;97900.87;1644473;86;27343;-56
2024/01/04 02:27:20;;;;;;;10.32;6.08;;;;;;;6.78;100.00;97901.33;1662666;86;25417;-58
2024/01/04 02:29:46;;;;;;;9.65;5.55;;;;;;;6.80;100.00;97902.54;1614456;87;25479;-58
2024/01/04 02:32:12;;;;;;;12.13;6.25;;;;;;;6.80;100.00;97902.54;1641488;84;25635;-58
2024/01/04 02:34:39;;;;;;;12.37;6.03;;;;;;;6.82;100.00;97901.62;1645721;84;25433;-57
2024/01/04 02:37:05;;;;;;;10.53;6.00;;;;;;;6.82;100.00;97904.31;1690426;84;27989;-57
2024/01/04 02:39:32;;;;;;;9.50;6.20;;;;;;;6.83;100.00;97903.20;1690335;84;25396;-58
2024/01/04 02:41:58;;;;;;;9.23;5.90;;;;;;;6.83;100.00;97895.71;1668348;84;25506;-57
2024/01/04 02:45:18;;;;;;;11.03;5.62;;;;;;;6.83;100.00;97889.00;1667917;84;26259;-57
2024/01/04 02:47:44;;;;;;;13.40;6.00;;;;;;;6.83;100.00;97892.45;1689637;84;25574;-57
2024/01/04 02:50:11;;;;;;;8.80;6.15;;;;;;;6.84;100.00;97889.97;1690389;84;27570;-57
2024/01/04 02:52:38;;;;;;;11.57;5.75;;;;;;;6.83;100.00;97892.45;1690349;84;25458;-57
2024/01/04 02:55:05;;;;;;;10.13;6.05;;;;;;;6.83;100.00;97884.97;1690425;84;25405;-55
2024/01/04 02:57:31;;;;;;;12.88;5.72;;;;;;;6.84;100.00;97889.97;1668269;84;25636;-55
2024/01/04 02:59:57;;;;;;;9.25;5.42;;;;;;;6.82;100.00;97890.88;1690445;84;25425;-55
2024/01/04 03:02:24;;;;;;;8.53;5.40;;;;;;;6.82;100.00;97893.56;1690418;84;27919;-57
2024/01/04 03:04:50;;;;;;;10.08;5.60;;;;;;;6.81;100.00;97892.56;1690346;84;25401;-58
2024/01/04 03:07:16;;;;;;;9.20;5.30;;;;;;;6.82;100.00;97891.45;1645720;84;25518;-56
2024/01/04 03:09:42;;;;;;;7.17;4.72;;;;;;;6.80;100.00;97893.13;1668235;84;25619;-54
2024/01/04 03:12:09;;;;;;;8.15;6.00;;;;;;;6.81;100.00;97891.22;1668357;84;25446;-57
2024/01/04 03:14:35;;;;;;;11.10;4.80;;;;;;;6.81;100.00;97893.91;1690395;84;27349;-54
2024/01/04 03:17:02;;;;;;;9.58;5.83;;;;;;;6.80;100.00;97895.05;1690337;84;25403;-55
2024/01/04 03:19:29;;;;;;;7.17;4.70;;;;;;;6.79;100.00;97900.19;1690424;84;25436;-57
2024/01/04 03:21:55;;;;;;;12.18;5.90;;;;;;;6.78;100.00;97895.39;1690379;84;25617;-56
2024/01/04 03:24:21;;;;;;;10.63;5.80;;;;;;;6.78;100.00;97895.95;1690434;84;25389;-57
2024/01/04 03:26:47;;;;;;;6.95;5.05;;;;;;;6.77;100.00;97890.35;1690380;84;27270;-54
2024/01/04 03:29:14;;;;;;;6.37;4.60;;;;;;;6.75;100.00;97890.69;1690319;84;25445;-54
2024/01/04 03:31:40;;;;;;;7.33;5.00;;;;;;;6.73;100.00;97892.38;1688812;84;25446;-54
2024/01/04 03:34:06;;;;;;;6.78;4.67;;;;;;;6.74;100.00;97887.77;1668332;84;25598;-55
2024/01/04 03:36:33;;;;;;;6.90;4.90;;;;;;;6.72;100.00;97884.66;1668301;84;25455;-57
2024/01/04 03:38:59;;;;;;;10.08;6.05;;;;;;;6.71;100.00;97885.22;1692130;84;27964;-54
2024/01/04 03:41:25;;;;;;;8.18;5.10;;;;;;;6.68;100.00;97887.24;1692060;84;25563;-57
2024/01/04 03:43:52;;;;;;;10.43;4.97;;;;;;;6.69;100.00;97879.95;1668266;84;25499;-54
2024/01/04 03:46:18;;;;;;;10.43;5.62;;;;;;;6.68;100.00;97879.75;1692071;84;25647;-57
2024/01/04 03:48:44;;;;;;;11.78;5.20;;;;;;;6.67;100.00;97879.52;1692125;84;25420;-55
2024/01/04 03:51:12;;;;;;;10.68;5.75;;;;;;;6.66;100.00;97884.70;1668006;84;27422;-54
2024/01/04 03:53:38;;;;;;;10.05;5.70;;;;;;;6.65;100.00;97879.86;1692043;84;25577;-57
2024/01/04 03:56:05;;;;;;;11.00;5.47;;;;;;;6.64;100.00;97872.94;1692151;84;25519;-56
2024/01/04 03:58:32;;;;;;;9.28;5.40;;;;;;;6.64;100.00;97871.59;1692112;84;25546;-57
2024/01/04 04:00:59;;;;;;;9.15;4.97;;;;;;;6.64;100.00;97870.80;1668355;84;25527;-54
2024/01/04 04:03:25;;;;;;;13.10;5.33;;;;;;;6.62;100.00;97869.80;1692121;84;27496;-54
2024/01/04 04:05:51;;;;;;;10.20;5.42;;;;;;;6.62;100.00;97868.45;1668357;84;25501;-57
2024/01/04 04:08:18;;;;;;;11.35;5.10;;;;;;;6.61;100.00;97870.16;1692102;84;25547;-56
2024/01/04 04:10:45;;;;;;;11.55;5.95;;;;;;;6.61;100.00;97870.94;1692104;84;26372;-55
2024/01/04 04:13:12;;;;;;;9.65;5.50;;;;;;;6.61;100.00;97874.96;1668217;84;25451;-55
2024/01/04 04:15:38;;;;;;;8.90;5.37;;;;;;;6.60;100.00;97869.36;1692140;84;28040;-57
2024/01/04 04:18:05;;;;;;;8.80;5.33;;;;;;;6.58;100.00;97872.18;1692041;84;25503;-53
2024/01/04 04:20:31;;;;;;;8.93;5.33;;;;;;;6.58;100.00;97866.81;1692133;84;25444;-56
2024/01/04 04:22:57;;;;;;;8.23;5.10;;;;;;;6.57;100.00;97867.92;1692081;84;25613;-54
2024/01/04 04:25:23;;;;;;;9.70;5.45;;;;;;;6.57;100.00;97867.92;1668153;84;25456;-57
2024/01/04 04:27:50;;;;;;;6.97;4.50;;;;;;;6.56;100.00;97871.75;1668356;84;27420;-56
2024/01/04 04:30:19;;;;;;;9.05;5.28;;;;;;;6.55;100.00;97865.57;1668195;84;25636;-54
2024/01/04 04:32:46;;;;;;;8.85;5.55;;;;;;;6.56;100.00;97865.03;1690048;84;25391;-57
2024/01/04 04:35:12;;;;;;;10.72;5.45;;;;;;;6.53;100.00;97867.83;1689498;84;25595;-56
2024/01/04 04:37:39;;;;;;;8.10;5.25;;;;;;;6.52;100.00;97871.08;1663989;85;25544;-55
2024/01/04 04:40:23;;;;;;;9.80;4.75;;;;;;;6.50;100.00;97870.64;1689538;84;27348;-57
2024/01/04 04:42:50;;;;;;;8.93;4.67;;;;;;;6.47;100.00;97869.98;1689435;85;25491;-54
2024/01/04 04:45:16;;;;;;;9.38;4.72;;;;;;;6.46;100.00;97878.38;1663835;85;25509;-58
2024/01/04 04:47:42;;;;;;;8.30;4.97;;;;;;;6.44;100.00;97877.94;1689446;85;26191;-57
2024/01/04 04:50:09;;;;;;;5.60;4.62;;;;;;;6.42;100.00;97878.27;1689537;85;25483;-57
2024/01/04 04:53:18;;;;;;;5.85;4.28;;;;;;;6.41;100.00;97875.92;1667577;85;25681;-57
2024/01/04 04:55:45;;;;;;;10.75;5.03;;;;;;;6.40;100.00;97875.69;1689434;84;25435;-58
2024/01/04 04:58:11;;;;;;;6.53;4.45;;;;;;;6.39;100.00;97876.83;1663626;85;25502;-56
2024/01/04 05:00:38;;;;;;;6.95;4.40;;;;;;;6.35;100.00;97877.50;1663628;85;25614;-58
2024/01/04 05:03:05;;;;;;;10.78;4.80;;;;;;;6.34;100.00;97875.93;1663595;85;25488;-56
2024/01/04 05:05:33;;;;;;;9.70;4.12;;;;;;;6.33;100.00;97874.92;1689490;85;27404;-58
2024/01/04 05:07:59;;;;;;;11.12;4.60;;;;;;;6.31;100.00;97879.28;1663537;85;25535;-58
2024/01/04 05:10:29;;;;;;;7.60;4.47;;;;;;;6.30;100.00;97880.42;1663605;85;25541;-58
2024/01/04 05:12:55;;;;;;;7.67;4.58;;;;;;;6.29;100.00;97878.08;1689598;84;25402;-58
2024/01/04 05:19:16;;;;;;;8.50;4.35;;;;;;;6.25;100.00;97884.69;1689576;85;27567;-57
2024/01/04 05:21:43;;;;;;;8.45;5.05;;;;;;;6.25;100.00;97885.23;1663638;85;25530;-55
2024/01/04 05:24:09;;;;;;;7.67;4.20;;;;;;;6.24;100.00;97881.00;1689485;85;25438;-56
2024/01/04 05:26:36;;;;;;;7.08;4.17;;;;;;;6.21;100.00;97881.67;1689430;84;25586;-57
2024/01/04 05:29:02;;;;;;;9.38;4.62;;;;;;;6.20;100.00;97879.55;1689516;84;25450;-57
2024/01/04 05:31:32;;;;;;;10.48;5.20;;;;;;;6.20;100.00;97884.92;1684484;84;27321;-57
2024/01/04 05:34:28;;;;;;;8.88;4.60;;;;;;;6.19;100.00;97882.00;1662742;86;25714;-57
2024/01/04 05:37:23;;;;;;;9.13;4.65;;;;;;;6.17;100.00;97882.34;1662843;85;25434;-54
2024/01/04 05:40:51;;;;;;;9.63;4.58;;;;;;;6.17;100.00;97889.62;1662815;85;25667;-57
2024/01/04 05:43:30;;;;;;;5.80;4.80;;;;;;;6.17;100.00;97889.05;1662847;86;25496;-57
2024/01/04 05:45:56;;;;;;;11.63;5.03;;;;;;;6.14;100.00;97890.28;1662920;86;26876;-57
2024/01/04 05:48:23;;;;;;;7.00;4.72;;;;;;;6.14;100.00;97891.63;1662755;86;25717;-58
2024/01/04 05:50:49;;;;;;;8.23;4.70;;;;;;;6.15;100.00;97898.58;1662818;86;25484;-58
2024/01/04 05:56:51;;;;;;;11.43;5.40;;;;;;;6.14;100.00;97899.11;1645110;86;25497;-58
2024/01/04 05:59:17;;;;;;;9.20;5.15;;;;;;;6.15;100.00;97897.23;1662803;86;28075;-58
2024/01/04 06:01:44;;;;;;;9.33;5.37;;;;;;;6.13;100.00;97900.25;1662737;86;25456;-58
2024/01/04 06:04:13;;;;;;;13.45;5.45;;;;;;;6.14;100.00;97902.36;1662807;86;25524;-58
2024/01/04 06:06:39;;;;;;;10.32;6.10;;;;;;;6.13;100.00;97896.22;1662872;86;26255;-58
2024/01/04 06:09:05;;;;;;;10.18;6.42;;;;;;;6.14;100.00;97900.45;1662821;86;25471;-57
2024/01/04 06:11:59;;;;;;;8.80;6.20;;;;;;;6.14;100.00;97903.14;1662803;86;28009;-57
2024/01/04 06:14:30;;;;;;;12.45;6.45;;;;;;;6.13;100.00;97906.96;1662322;86;25579;-56
2024/01/04 06:17:18;;;;;;;9.95;6.25;;;;;;;6.14;100.00;97905.05;1662323;86;25475;-54
2024/01/04 06:20:30;;;;;;;13.95;6.92;;;;;;;6.14;100.00;97905.05;1662793;86;25639;-58
2024/01/04 06:23:09;;;;;;;10.95;7.08;;;;;;;6.15;100.00;97905.28;1639674;86;25633;-57
2024/01/04 06:26:45;;;;;;;13.50;7.43;;;;;;;6.14;100.00;97905.83;1663047;86;27409;-58
2024/01/04 06:29:14;;;;;;;10.05;6.42;;;;;;;6.14;100.00;97911.76;1662721;86;25683;-57
2024/01/04 06:32:51;;;;;;;11.22;6.55;;;;;;;6.13;100.00;97909.64;1664658;84;34933;-58
2024/01/04 06:35:17;;;;;;;12.80;7.60;;;;;;;6.13;100.00;97906.16;1689510;84;26354;-58
2024/01/04 06:37:44;;;;;;;12.43;7.15;;;;;;;6.12;100.00;97905.95;1689017;84;25643;-57
2024/01/04 06:44:15;;;;;;;12.00;7.30;;;;;;;6.11;100.00;97908.40;1689726;85;25418;-57
2024/01/04 06:46:43;;;;;;;14.20;7.15;;;;;;;6.10;100.00;97905.52;1607036;87;25533;-56
2024/01/04 06:49:12;;;;;;;12.53;8.18;;;;;;;6.09;100.00;97903.94;1660533;86;25618;-57
2024/01/04 06:52:40;;;;;;;8.80;6.62;;;;;;;6.10;100.00;97910.88;1660790;86;25507;-56
2024/01/04 06:55:37;;;;;;;14.30;7.53;;;;;;;6.11;100.00;97911.89;1651274;86;28040;-58
2024/01/04 06:58:04;;;;;;;13.38;7.85;;;;;;;6.11;100.00;97909.74;1689366;85;25564;-54
2024/01/04 07:04:29;;;;;;;13.08;7.80;;;;;;;6.11;100.00;97908.40;1689606;85;25467;-57
2024/01/04 07:07:08;;;;;;;12.70;8.43;;;;;;;6.07;100.00;97904.84;1689443;85;25444;-57
2024/01/04 07:09:46;;;;;;;12.40;8.48;;;;;;;6.07;100.00;97904.84;1689425;85;27971;-58
2024/01/04 07:13:01;;;;;;;13.15;8.90;;;;;;;6.07;100.00;97908.30;1663559;85;25694;-58
2024/01/04 07:15:46;;;;;;;15.15;8.38;;;;;;;6.07;100.00;97901.59;1667560;85;25478;-57
2024/01/04 07:18:12;;;;;;;15.30;9.13;;;;;;;6.08;100.00;97905.84;1689404;84;26276;-58
2024/01/04 07:21:15;;;;;;;13.18;7.92;;;;;;;6.09;100.00;97903.94;1689415;85;25467;-56
2024/01/04 07:28:16;;;;;;;15.28;9.03;;;;;;;6.08;100.00;97901.82;1689530;85;25408;-57
2024/01/04 07:34:59;;;;;;;14.33;8.00;;;;;;;6.12;100.00;97904.05;1689728;85;25447;-58
2024/01/04 07:38:02;;;;;;;13.72;8.63;;;;;;;6.13;100.00;97898.91;1689836;84;25102;-56
2024/01/04 07:44:08;;;;;;;12.20;8.40;;;;;;;6.14;100.00;97905.05;1671391;85;25434;-58
2024/01/04 07:47:02;;;;;;;11.50;8.35;;;;;;;6.17;100.00;97893.64;1689443;84;25464;-57
2024/01/04 07:53:42;;;;;;;10.08;7.42;;;;;;;6.19;100.00;97897.33;1670509;85;25485;-60
2024/01/04 07:57:11;;;;;;;12.07;7.35;;;;;;;6.21;100.00;97897.77;1604964;87;25614;-58
2024/01/04 07:59:40;;;;;;;11.57;7.28;;;;;;;6.22;100.00;97896.09;1689338;85;25921;-58
2024/01/04 08:03:07;;;;;;;13.50;7.53;;;;;;;6.26;100.00;97900.22;1689533;85;25465;-55
2024/01/04 08:09:11;;;;;;;12.37;7.47;;;;;;;6.31;100.00;97909.39;1669995;85;25446;-57
2024/01/04 08:28:39;;;;;;;14.73;8.58;;;;;;;6.43;100.00;97914.73;1689727;85;25400;-58
2024/01/04 08:31:05;;;;;;;14.47;7.53;;;;;;;6.48;100.00;97914.49;1689524;85;27330;-54
2024/01/04 08:33:32;;;;;;;13.15;7.90;;;;;;;6.48;100.00;97909.69;1689441;85;25463;-56
2024/01/04 08:36:44;;;;;;;15.43;8.93;;;;;;;6.50;100.00;97913.61;1689531;84;25513;-55
2024/01/04 08:39:35;;;;;;;14.10;7.78;;;;;;;6.52;100.00;97916.73;1689745;84;26240;-55
2024/01/04 08:42:16;;;;;;;15.30;8.38;;;;;;;6.56;100.00;97918.18;1666772;85;25506;-54
2024/01/04 08:44:43;;;;;;;11.00;7.83;;;;;;;6.57;100.00;97917.04;1688812;84;27254;-54
2024/01/04 08:47:09;;;;;;;13.25;7.97;;;;;;;6.59;100.00;97914.82;1689447;85;25577;-55
2024/01/04 08:53:34;;;;;;;14.23;7.70;;;;;;;6.60;100.00;97915.59;1689789;85;25459;-57
2024/01/04 08:56:08;;;;;;;12.35;7.90;;;;;;;6.60;100.00;97911.56;1689550;85;25455;-54
2024/01/04 08:58:36;;;;;;;12.53;8.18;;;;;;;6.61;100.00;97905.85;1689534;85;27439;-53
2024/01/04 09:01:02;;;;;;;14.55;9.10;;;;;;;6.65;100.00;97914.78;1689399;85;25471;-55
2024/01/04 09:03:29;;;;;;;17.15;9.80;;;;;;;6.66;100.00;97914.24;1689429;85;25467;-55
2024/01/04 09:06:25;;;;;;;15.43;9.20;;;;;;;6.68;100.00;97911.99;1689465;84;25630;-58
2024/01/04 09:08:51;;;;;;;13.55;9.53;;;;;;;6.70;100.00;97920.48;1667867;85;25513;-54
2024/01/04 09:11:19;;;;;;;11.95;8.78;;;;;;;6.73;100.00;97923.84;1689482;85;27543;-54
2024/01/04 09:13:47;;;;;;;15.53;9.00;;;;;;;6.73;100.00;97927.30;1689386;85;25480;-55
2024/01/04 09:17:08;;;;;;;10.98;8.88;;;;;;;6.75;100.00;97924.84;1664004;85;25464;-53
2024/01/04 09:20:36;;;;;;;12.93;8.55;;;;;;;6.77;100.00;97927.40;1689450;85;25673;-57
2024/01/04 09:23:14;;;;;;;14.18;8.33;;;;;;;6.77;100.00;97926.05;1689522;85;25418;-58
2024/01/04 09:29:30;;;;;;;13.05;8.78;;;;;;;6.79;100.00;97926.48;1689478;85;25447;-57
2024/01/04 09:40:14;;;;;;;13.55;8.18;;;;;;;6.83;100.00;97931.98;1679535;85;25527;-57
2024/01/04 09:53:18;;;;;;;12.65;8.20;;;;;;;6.82;100.00;97927.73;1631534;86;25613;-58
2024/01/04 09:56:04;;;;;;;11.48;7.87;;;;;;;6.85;100.00;97928.39;1651367;86;25453;-57
2024/01/04 09:59:01;;;;;;;13.72;8.23;;;;;;;6.89;100.00;97924.66;1670293;85;27362;-53
2024/01/04 10:01:40;;;;;;;11.43;8.03;;;;;;;6.95;100.00;97917.70;1670232;85;25445;-54
2024/01/04 10:04:25;;;;;;;12.07;7.22;;;;;;;6.94;100.00;97914.23;1670450;85;25441;-55
2024/01/04 10:06:55;;;;;;;10.25;7.47;;;;;;;6.98;100.00;97919.70;1670284;85;25774;-58
2024/01/04 10:10:00;;;;;;;10.32;7.42;;;;;;;6.99;100.00;97922.05;1670304;85;25468;-55
2024/01/04 10:12:45;;;;;;;9.23;6.75;;;;;;;7.02;100.00;97925.98;1670403;85;25672;-56
2024/01/04 10:24:07;;;;;;;11.12;8.13;;;;;;;7.08;100.00;97923.24;1670434;85;25496;-56
2024/01/04 10:38:40;;;;;;;9.70;6.70;;;;;;;7.05;100.00;97918.00;1670453;85;25444;-54
2024/01/04 10:46:16;;;;;;;9.20;7.47;;;;;;;7.02;100.00;97918.69;1670483;85;25518;-55
2024/01/04 10:48:45;;;;;;;8.68;6.17;;;;;;;7.01;100.00;97917.11;1679735;85;27249;-54
2024/01/04 10:55:14;;;;;;;8.90;6.83;;;;;;;7.05;100.00;97923.95;1670498;85;25492;-55
2024/01/04 10:57:53;;;;;;;9.15;6.50;;;;;;;7.02;100.00;97921.94;1670270;84;25691;-54
2024/01/04 11:00:19;;;;;;;11.07;7.33;;;;;;;7.00;100.00;97928.20;1646199;85;25570;-56
2024/01/04 11:15:52;;;;;;;12.53;9.25;;;;;;;7.02;100.00;97915.23;1689578;85;25423;-55
2024/01/04 11:27:21;;;;;;;9.60;8.60;;;;;;;7.11;100.00;97913.16;1689404;85;25447;-56
2024/01/04 11:38:42;;;;;;;10.67;9.03;;;;;;;7.13;100.00;97910.13;1689903;85;25509;-56
2024/01/04 11:45:06;;;;;;;13.13;8.90;;;;;;;7.13;100.00;97908.78;1670231;85;25503;-54
2024/01/04 11:47:39;;;;;;;13.35;9.48;;;;;;;7.13;100.00;97916.27;1689675;85;25086;-55
2024/01/04 11:55:17;;;;;;;13.07;10.23;;;;;;;7.15;100.00;97907.87;1690678;84;25440;-57
2024/01/04 13:38:55;;;;;;;12.70;9.68;;;;;;;7.08;100.00;97953.61;1650390;85;25397;-58
2024/01/04 13:41:21;;;;;;;13.90;9.50;;;;;;;7.07;100.00;97960.10;1654548;86;25441;-53
2024/01/04 13:43:48;;;;;;;11.70;8.95;;;;;;;7.06;100.00;97951.81;1654532;86;25654;-53
2024/01/04 13:46:34;;;;;;;11.95;9.28;;;;;;;7.05;100.00;97958.33;1654521;86;25439;-55
2024/01/04 13:49:01;;;;;;;13.28;9.10;;;;;;;7.04;100.00;97961.35;1654502;86;26939;-52
2024/01/04 13:51:28;;;;;;;11.43;9.48;;;;;;;7.03;100.00;97964.61;1653929;86;25437;-57
2024/01/04 13:53:55;;;;;;;14.70;10.03;;;;;;;7.01;100.00;97959.34;1654475;86;25455;-55
2024/01/04 13:56:22;;;;;;;12.50;9.23;;;;;;;7.01;100.00;97963.38;1654492;86;25622;-53
2024/01/04 13:58:48;;;;;;;14.35;9.93;;;;;;;7.01;100.00;97962.80;1654476;86;25438;-59
2024/01/04 14:01:14;;;;;;;15.13;11.35;;;;;;;7.02;100.00;97971.10;1654466;86;27370;-59
2024/01/04 14:03:41;;;;;;;17.25;12.53;;;;;;;7.04;100.00;97969.41;1654325;86;25522;-59
2024/01/04 14:06:09;;;;;;;14.50;9.90;;;;;;;7.04;100.00;97972.87;1654452;86;25518;-56
2024/01/04 14:08:35;;;;;;;16.85;10.28;;;;;;;7.06;100.00;97981.95;1648157;86;26324;-59
2024/01/04 14:11:02;;;;;;;15.80;9.45;;;;;;;7.08;100.00;97975.66;1647938;87;25474;-56
2024/01/04 14:13:29;;;;;;;13.13;9.58;;;;;;;7.08;100.00;97979.16;1647878;87;27443;-54
2024/01/04 14:15:55;;;;;;;11.48;7.97;;;;;;;7.04;100.00;97981.52;1647771;87;25205;-57
2024/01/04 14:18:22;;;;;;;11.08;8.75;;;;;;;7.01;100.00;97978.93;1647862;87;25516;-55
2024/01/04 14:20:49;;;;;;;12.28;7.78;;;;;;;6.98;100.00;97985.02;1629583;87;25710;-57
2024/01/04 14:23:16;;;;;;;9.15;7.42;;;;;;;6.95;100.00;97985.69;1647846;87;25459;-55
2024/01/04 14:25:42;;;;;;;10.00;7.78;;;;;;;6.92;100.00;97989.83;1647840;87;27282;-55
2024/01/04 14:28:09;;;;;;;12.35;7.53;;;;;;;6.89;100.00;97991.07;1647770;87;25714;-53
2024/01/04 14:30:36;;;;;;;9.85;6.90;;;;;;;6.86;100.00;98000.61;1647767;87;25083;-57
2024/01/04 14:33:05;;;;;;;10.55;6.62;;;;;;;6.81;100.00;97994.13;1647741;87;25657;-55
2024/01/04 14:35:31;;;;;;;8.35;6.60;;;;;;;6.81;100.00;97998.70;1647819;87;25419;-56
2024/01/04 14:37:58;;;;;;;7.85;6.87;;;;;;;6.76;100.00;97993.56;1649821;86;27420;-54
2024/01/04 14:40:24;;;;;;;8.95;6.65;;;;;;;6.72;100.00;97996.14;1660041;85;25565;-56
2024/01/04 14:42:51;;;;;;;8.23;6.45;;;;;;;6.69;100.00;97997.63;1660139;85;25444;-55
2024/01/04 14:45:17;;;;;;;9.58;6.97;;;;;;;6.67;100.00;97989.66;1660175;85;25605;-61
2024/01/04 14:47:48;;;;;;;10.23;7.42;;;;;;;6.65;100.00;97998.06;1660081;85;25441;-55
2024/01/04 14:50:15;;;;;;;8.13;6.50;;;;;;;6.61;100.00;97991.81;1659945;85;27369;-56
2024/01/04 14:52:42;;;;;;;7.92;6.25;;;;;;;6.60;100.00;97996.95;1664419;85;25468;-57
2024/01/04 14:55:10;;;;;;;16.80;8.15;;;;;;;6.57;100.00;97994.94;1659755;86;25419;-58
2024/01/04 14:57:43;;;;;;;8.25;7.28;;;;;;;6.54;100.00;98002.34;1659864;86;26144;-55
2024/01/04 15:00:12;;;;;;;10.65;8.18;;;;;;;6.53;100.00;98002.89;1659982;85;25481;-56
2024/01/04 15:02:39;;;;;;;10.23;7.72;;;;;;;6.53;100.00;98005.58;1660026;85;27331;-57
2024/01/04 15:05:15;;;;;;;9.20;7.45;;;;;;;6.51;100.00;98005.70;1660167;85;25396;-57
2024/01/04 15:07:42;;;;;;;8.23;7.30;;;;;;;6.51;100.00;98008.39;1664534;86;25446;-54
2024/01/04 15:10:09;;;;;;;9.43;7.50;;;;;;;6.49;100.00;98005.27;1660272;85;25658;-54
2024/01/04 15:12:38;;;;;;;10.13;7.87;;;;;;;6.49;100.00;98012.75;1660310;85;25485;-56
2024/01/04 15:15:09;;;;;;;12.40;8.33;;;;;;;6.49;100.00;98014.66;1664574;86;27336;-55
2024/01/04 15:17:35;;;;;;;9.18;7.67;;;;;;;6.46;100.00;98007.27;1661669;85;25435;-57
2024/01/04 15:20:03;;;;;;;11.38;8.70;;;;;;;6.47;100.00;98005.59;1660495;85;25476;-55
2024/01/04 15:22:30;;;;;;;11.40;8.05;;;;;;;6.47;100.00;98000.22;1659707;85;25695;-58
2024/01/04 15:24:57;;;;;;;8.95;8.00;;;;;;;6.45;100.00;98007.84;1660599;85;25473;-56
2024/01/04 15:27:23;;;;;;;13.38;8.63;;;;;;;6.42;100.00;97995.08;1659942;86;27398;-57
2024/01/04 15:29:53;;;;;;;12.23;9.40;;;;;;;6.40;100.00;97993.84;1660410;85;25409;-56
2024/01/04 15:32:21;;;;;;;14.60;9.20;;;;;;;6.40;100.00;97997.87;1660379;85;25473;-54
2024/01/04 15:34:48;;;;;;;11.88;9.45;;;;;;;6.41;100.00;98002.13;1665393;84;25677;-57
2024/01/04 15:37:14;;;;;;;17.27;10.38;;;;;;;6.39;100.00;97989.61;1660172;85;25480;-54
2024/01/04 15:39:41;;;;;;;15.38;10.00;;;;;;;6.40;100.00;98004.58;1591359;90;27374;-57
2024/01/04 15:42:08;;;;;;;12.10;9.33;;;;;;;6.38;100.00;97992.05;1619180;87;25475;-56
2024/01/04 15:44:35;;;;;;;12.05;9.35;;;;;;;6.39;100.00;98005.72;1623379;87;25472;-57
2024/01/04 15:47:02;;;;;;;12.53;9.75;;;;;;;6.34;100.00;97995.98;1650401;86;25560;-55
2024/01/04 15:49:29;;;;;;;12.37;8.80;;;;;;;6.34;100.00;98000.01;1656276;86;25579;-56
2024/01/04 15:51:55;;;;;;;15.83;11.28;;;;;;;6.32;100.00;98008.39;1657925;86;28058;-58
2024/01/04 15:54:21;;;;;;;21.40;15.78;;;;;;;6.32;100.00;98007.62;1622488;88;25465;-58
2024/01/04 15:56:48;;;;;;;42.00;33.08;;;;;;;6.36;100.00;98004.47;1654944;86;25433;-58